Time;durP1;ratioP1;P1;durP2;ratioP2;P2;SDS_P1;SDS_P2;PMS_P1;PMS_P2;Temp;Humidity;BMP_temperature;BMP_pressure;BME280_temperature;BME280_humidity;BME280_pressure;Samples;Min_cycle;Max_cycle;Signal;HPM_P1;HPM_P2
2022/10/22 00:00:41;;;;;;;;;0.00;0.00;;;;;19.40;66.39;-19726.13;4994003;27;45334;-78
2022/10/22 00:03:06;;;;;;;;;0.00;0.00;;;;;19.31;66.62;-19723.84;4993888;27;45342;-79
2022/10/22 00:05:31;;;;;;;;;2.00;0.00;;;;;19.22;66.27;-19721.47;4993111;27;45377;-78
2022/10/22 00:07:57;;;;;;;;;0.67;0.00;;;;;19.46;66.08;-19727.72;4993712;27;45361;-79
2022/10/22 00:10:22;;;;;;;;;0.33;0.00;;;;;19.47;66.20;-19728.00;4998109;27;46443;-79
2022/10/22 00:12:48;;;;;;;;;0.00;0.00;;;;;19.03;66.05;-19716.38;4994936;28;45284;-79
2022/10/22 00:15:13;;;;;;;;;0.00;0.00;;;;;19.22;66.60;-19721.47;4992114;27;45656;-79
2022/10/22 00:17:39;;;;;;;;;2.00;0.00;;;;;19.43;66.30;-19726.94;5034286;27;45384;-79
2022/10/22 00:20:05;;;;;;;;;0.00;0.00;;;;;19.22;66.14;-19721.31;4996397;27;46555;-80
2022/10/22 00:22:30;;;;;;;;;0.00;0.00;;;;;19.22;66.57;-19721.47;4997180;28;45325;-80
2022/10/22 00:24:55;;;;;;;;;1.00;0.00;;;;;19.29;67.07;-19723.31;4977001;28;45349;-80
2022/10/22 00:27:21;;;;;;;;;1.67;0.00;;;;;19.37;66.70;-19725.34;4994698;27;45813;-79
2022/10/22 00:29:46;;;;;;;;;0.00;0.00;;;;;19.37;66.79;-19725.34;4998285;27;45970;-80
2022/10/22 00:32:12;;;;;;;;;0.00;0.00;;;;;19.33;67.15;-19724.25;4993822;28;45878;-79
2022/10/22 00:34:37;;;;;;;;;0.50;0.00;;;;;19.33;67.38;-19724.25;4999098;28;45875;-79
2022/10/22 00:37:02;;;;;;;;;0.67;0.67;;;;;19.32;67.10;-19724.00;4992266;27;45524;-81
2022/10/22 00:39:28;;;;;;;;;0.50;0.50;;;;;19.18;67.12;-19720.38;4991158;27;45719;-80
2022/10/22 00:41:56;;;;;;;;;2.00;1.00;;;;;19.16;66.88;-19719.84;4997357;27;45634;-80
2022/10/22 00:44:59;;;;;;;;;0.00;0.00;;;;;19.28;67.05;-19723.06;5001601;27;45437;-79
2022/10/22 00:47:27;;;;;;;;;0.00;0.00;;;;;18.88;66.83;-19712.50;5006091;28;45416;-79
2022/10/22 00:49:56;;;;;;;;;0.00;0.00;;;;;18.85;67.11;-19711.72;4992274;28;46950;-79
2022/10/22 00:52:21;;;;;;;;;0.00;0.00;;;;;19.29;67.44;-19723.19;4992718;27;45488;-79
2022/10/22 00:54:47;;;;;;;;;2.00;1.00;;;;;19.05;67.18;-19716.91;4972735;28;45356;-79
2022/10/22 00:57:15;;;;;;;;;0.00;0.00;;;;;19.28;66.86;-19723.06;4989329;27;45340;-79
2022/10/22 00:59:41;;;;;;;;;1.00;0.00;;;;;19.12;67.07;-19718.78;4988556;27;46496;-80
2022/10/22 01:02:06;;;;;;;;;0.00;0.00;;;;;19.12;67.21;-19718.91;4972777;28;45519;-81
2022/10/22 01:04:32;;;;;;;;;0.00;0.00;;;;;19.28;67.40;-19722.94;4991063;27;45393;-79
2022/10/22 01:06:57;;;;;;;;;1.00;1.00;;;;;19.27;67.46;-19722.78;4986554;27;45568;-80
2022/10/22 01:09:35;;;;;;;;;2.00;0.00;;;;;19.29;67.08;-19723.31;5001797;27;46399;-80
2022/10/22 01:12:09;;;;;;;;;1.50;0.00;;;;;19.22;67.07;-19721.47;4990526;28;45509;-79
2022/10/22 01:14:37;;;;;;;;;0.00;0.00;;;;;19.23;66.99;-19721.59;5000103;28;45457;-78
2022/10/22 01:17:12;;;;;;;;;1.00;1.00;;;;;19.24;67.09;-19722.00;4996632;27;45774;-78
2022/10/22 01:20:02;;;;;;;;;0.25;0.00;;;;;19.21;66.96;-19721.19;4976016;28;48021;-79
2022/10/22 01:22:48;;;;;;;;;1.00;0.00;;;;;19.18;67.45;-19720.53;5000248;27;45427;-80
2022/10/22 01:25:19;;;;;;;;;1.00;0.00;;;;;19.15;67.01;-19719.72;4998282;27;45735;-79
2022/10/22 01:28:06;;;;;;;;;0.67;0.00;;;;;19.17;67.41;-19720.25;4979486;27;45472;-79
2022/10/22 01:30:33;;;;;;;;;0.33;0.00;;;;;18.99;66.92;-19715.44;5001081;27;46312;-80
2022/10/22 01:33:03;;;;;;;;;0.00;0.00;;;;;18.99;67.35;-19715.44;4996693;27;46760;-78
2022/10/22 01:35:33;;;;;;;;;1.00;0.00;;;;;19.16;66.97;-19720.00;4985885;28;45436;-79
2022/10/22 01:38:05;;;;;;;;;0.00;0.00;;;;;19.15;67.02;-19719.72;4996962;27;45793;-79
2022/10/22 01:40:31;;;;;;;;;2.00;0.00;;;;;19.15;67.11;-19719.72;4987171;27;45534;-78
2022/10/22 01:43:06;;;;;;;;;2.00;0.00;;;;;19.12;66.87;-19718.91;4995190;27;45458;-79
2022/10/22 01:45:46;;;;;;;;;0.00;0.00;;;;;19.10;67.20;-19718.38;5006841;27;45373;-79
2022/10/22 01:48:41;;;;;;;;;0.00;0.00;;;;;19.14;67.19;-19719.31;4989104;27;45384;-79
2022/10/22 01:51:20;;;;;;;;;0.50;0.50;;;;;19.17;66.77;-19720.25;5000139;27;45493;-78
2022/10/22 01:54:09;;;;;;;;;1.00;0.00;;;;;19.03;67.05;-19716.50;4994690;27;45537;-80
2022/10/22 01:56:53;;;;;;;;;0.00;0.00;;;;;19.22;67.09;-19721.47;4980582;28;45440;-79
2022/10/22 01:59:51;;;;;;;;;0.00;0.00;;;;;19.20;67.15;-19720.94;4995649;27;45484;-80
2022/10/22 02:02:24;;;;;;;;;0.00;0.00;;;;;19.07;67.36;-19717.59;5018316;28;46511;-79
2022/10/22 02:04:59;;;;;;;;;0.00;0.00;;;;;19.22;67.22;-19721.47;5023228;28;45340;-79
2022/10/22 02:07:31;;;;;;;;;1.33;0.67;;;;;19.27;67.21;-19722.78;4997186;28;46012;-79
2022/10/22 02:09:58;;;;;;;;;0.00;0.00;;;;;19.31;67.10;-19723.84;5001325;28;45616;-78
2022/10/22 02:12:26;;;;;;;;;2.00;0.00;;;;;19.32;67.08;-19724.13;5026977;28;46135;-78
2022/10/22 02:14:55;;;;;;;;;0.00;0.00;;;;;19.34;67.02;-19724.66;5024097;28;45437;-78
2022/10/22 02:17:21;;;;;;;;;0.00;0.00;;;;;19.43;66.94;-19726.94;5025965;28;45488;-78
2022/10/22 02:19:54;;;;;;;;;0.00;0.00;;;;;19.38;66.86;-19725.72;5014865;28;45488;-78
2022/10/22 02:22:20;;;;;;;;;0.00;0.00;;;;;19.39;66.69;-19726.00;5014756;28;46209;-78
2022/10/22 02:24:47;;;;;;;;;0.00;0.00;;;;;19.45;66.94;-19727.34;5014023;28;45514;-78
2022/10/22 02:27:18;;;;;;;;;0.75;0.00;;;;;19.45;66.54;-19727.47;4995435;28;45443;-78
2022/10/22 02:30:09;;;;;;;;;0.00;0.00;;;;;19.25;66.96;-19722.25;5018060;28;45774;-78
2022/10/22 02:32:50;;;;;;;;;0.00;0.00;;;;;19.30;66.79;-19723.47;5034042;28;45493;-78
2022/10/22 02:35:20;;;;;;;;;0.00;0.00;;;;;19.39;66.89;-19726.00;5017376;28;45550;-78
2022/10/22 02:37:46;;;;;;;;;1.00;0.00;;;;;19.42;67.15;-19726.66;5010308;27;45445;-78
2022/10/22 02:40:12;;;;;;;;;0.25;0.00;;;;;19.42;66.56;-19726.66;4996698;27;45480;-78
2022/10/22 02:42:39;;;;;;;;;1.00;0.00;;;;;19.25;66.65;-19722.25;4999358;27;46231;-77
2022/10/22 02:45:06;;;;;;;;;0.50;0.00;;;;;19.14;66.77;-19719.47;4993190;27;45568;-80
2022/10/22 02:47:31;;;;;;;;;0.00;0.00;;;;;19.32;67.34;-19724.00;4990890;27;45483;-80
2022/10/22 02:49:56;;;;;;;;;1.00;1.00;;;;;19.31;66.96;-19723.72;4989766;27;45709;-80
2022/10/22 02:52:22;;;;;;;;;0.67;0.00;;;;;19.32;67.39;-19724.13;4997032;27;46037;-79
2022/10/22 02:54:47;;;;;;;;;1.33;0.00;;;;;19.30;67.08;-19723.59;5007083;27;45421;-79
2022/10/22 02:57:13;;;;;;;;;1.33;0.00;;;;;19.31;67.05;-19723.84;5000261;27;45527;-80
2022/10/22 02:59:38;;;;;;;;;1.00;0.00;;;;;19.30;67.37;-19723.47;4993972;27;45286;-79
2022/10/22 03:02:03;;;;;;;;;0.00;0.00;;;;;19.34;67.63;-19724.53;4991103;27;46040;-73
2022/10/22 03:04:29;;;;;;;;;0.00;0.00;;;;;19.28;67.59;-19723.06;4986245;27;45465;-73
2022/10/22 03:06:54;;;;;;;;;2.00;1.00;;;;;19.32;67.35;-19724.00;4999823;28;45581;-73
2022/10/22 03:09:20;;;;;;;;;1.33;0.00;;;;;19.29;67.25;-19723.31;4989850;27;45279;-73
2022/10/22 03:11:45;;;;;;;;;0.00;0.00;;;;;19.24;67.60;-19722.00;4991004;27;45838;-73
2022/10/22 03:14:11;;;;;;;;;0.00;0.00;;;;;19.23;67.71;-19721.72;4984637;27;45234;-73
2022/10/22 03:16:37;;;;;;;;;2.00;0.00;;;;;19.24;68.17;-19722.00;4982821;27;45645;-73
2022/10/22 03:19:02;;;;;;;;;0.00;0.00;;;;;19.21;68.37;-19721.19;4976550;27;45633;-73
2022/10/22 03:21:36;;;;;;;;;3.00;0.00;;;;;19.17;67.85;-19720.25;4995271;27;45731;-73
2022/10/22 03:24:08;;;;;;;;;1.00;0.00;;;;;19.18;68.17;-19720.38;4972204;28;45638;-74
2022/10/22 03:26:33;;;;;;;;;0.00;0.00;;;;;19.17;68.28;-19720.13;4976276;28;45504;-74
2022/10/22 03:28:59;;;;;;;;;0.00;0.00;;;;;19.35;67.58;-19724.94;4993018;27;45475;-73
2022/10/22 03:31:25;;;;;;;;;0.67;0.67;;;;;19.69;66.19;-19733.75;5005822;27;45271;-72
2022/10/22 03:33:50;;;;;;;;;1.00;0.00;;;;;19.35;67.07;-19724.78;4989224;27;45543;-73
2022/10/22 03:36:16;;;;;;;;;0.00;0.00;;;;;19.08;68.08;-19717.72;4992204;27;45385;-73
2022/10/22 03:38:42;;;;;;;;;0.00;0.00;;;;;19.85;66.90;-19737.88;4985019;28;45298;-73
2022/10/22 03:41:08;;;;;;;;;2.00;0.00;;;;;19.94;66.25;-19740.28;4995296;27;46191;-73
2022/10/22 03:43:35;;;;;;;;;0.00;0.00;;;;;19.99;65.97;-19741.47;4981168;28;45507;-73
2022/10/22 03:46:00;;;;;;;;;0.00;0.00;;;;;19.75;65.98;-19735.22;4978616;28;45587;-73
2022/10/22 03:48:25;;;;;;;;;1.00;0.00;;;;;19.82;67.44;-19737.22;4974016;27;45387;-73
2022/10/22 03:50:51;;;;;;;;;1.33;0.00;;;;;19.42;66.81;-19726.53;4989369;28;48112;-73
2022/10/22 03:53:16;;;;;;;;;0.00;0.00;;;;;19.56;65.71;-19730.28;5009248;28;45356;-73
2022/10/22 03:55:42;;;;;;;;;1.33;0.33;;;;;19.51;66.31;-19729.06;4986893;27;45935;-74
2022/10/22 03:58:07;;;;;;;;;0.00;0.00;;;;;19.28;67.65;-19722.94;4996843;28;45340;-73
2022/10/22 04:00:34;;;;;;;;;0.00;0.00;;;;;19.13;68.77;-19719.19;5004267;27;45573;-73
2022/10/22 04:02:59;;;;;;;;;1.33;0.00;;;;;19.84;67.05;-19737.59;4976742;28;45501;-73
2022/10/22 04:05:25;;;;;;;;;0.67;0.67;;;;;19.89;66.53;-19738.94;4980283;27;45480;-73
2022/10/22 04:07:50;;;;;;;;;2.00;0.00;;;;;19.14;68.42;-19719.31;4993743;27;45453;-74
2022/10/22 04:10:16;;;;;;;;;0.00;0.00;;;;;19.20;68.56;-19720.94;4989831;27;47540;-73
2022/10/22 04:12:41;;;;;;;;;0.00;0.00;;;;;19.15;69.12;-19719.72;5000076;27;46186;-72
2022/10/22 04:15:07;;;;;;;;;1.00;0.00;;;;;19.26;68.71;-19722.41;4998796;28;45514;-74
2022/10/22 04:17:34;;;;;;;;;2.25;0.00;;;;;19.12;69.24;-19718.91;4994025;27;45256;-73
2022/10/22 04:20:00;;;;;;;;;0.00;0.00;;;;;19.24;68.91;-19722.00;4977505;28;47080;-74
2022/10/22 04:22:25;;;;;;;;;2.00;0.00;;;;;19.13;69.42;-19719.19;4998504;27;45500;-73
2022/10/22 04:24:50;;;;;;;;;0.00;0.00;;;;;19.83;67.90;-19737.34;4985759;28;45542;-74
2022/10/22 04:27:16;;;;;;;;;0.00;0.00;;;;;19.95;67.46;-19740.41;4993603;28;45439;-73
2022/10/22 04:29:41;;;;;;;;;2.67;0.67;;;;;19.71;67.14;-19734.28;5002920;27;45465;-74
2022/10/22 04:32:07;;;;;;;;;0.33;0.33;;;;;19.42;67.83;-19726.66;4995586;27;45433;-73
2022/10/22 04:34:32;;;;;;;;;0.67;0.00;;;;;18.96;68.52;-19714.78;4995994;27;45528;-73
2022/10/22 04:36:57;;;;;;;;;0.00;0.00;;;;;19.23;68.72;-19721.72;4997402;27;45471;-74
2022/10/22 04:39:23;;;;;;;;;1.00;1.00;;;;;19.79;67.32;-19736.41;4998483;27;45310;-74
2022/10/22 04:41:48;;;;;;;;;0.67;0.00;;;;;19.85;67.00;-19737.88;4993875;28;45372;-73
2022/10/22 04:44:13;;;;;;;;;0.00;0.00;;;;;19.83;67.33;-19737.34;4973290;28;45514;-73
2022/10/22 04:46:39;;;;;;;;;1.00;0.00;;;;;19.57;67.07;-19730.66;4991690;27;45459;-73
2022/10/22 04:49:04;;;;;;;;;0.00;0.00;;;;;19.85;67.20;-19737.75;4983132;28;48316;-74
2022/10/22 04:51:30;;;;;;;;;2.00;0.00;;;;;19.84;67.38;-19737.47;5005741;28;45277;-73
2022/10/22 04:53:56;;;;;;;;;1.00;0.33;;;;;19.50;66.79;-19728.66;4998280;27;45488;-73
2022/10/22 04:56:27;;;;;;;;;0.00;0.00;;;;;19.84;66.90;-19737.59;4993353;27;45424;-73
2022/10/22 04:58:55;;;;;;;;;0.00;0.00;;;;;19.84;67.46;-19737.59;4975539;27;46385;-73
2022/10/22 05:01:32;;;;;;;;;0.00;0.00;;;;;19.87;67.38;-19738.41;4996316;27;45452;-74
2022/10/22 05:04:00;;;;;;;;;1.00;1.00;;;;;19.85;66.98;-19737.75;4950753;28;47109;-74
2022/10/22 05:06:26;;;;;;;;;0.00;0.00;;;;;19.95;67.08;-19740.41;4952764;28;45726;-74
2022/10/22 05:09:00;;;;;;;;;1.75;0.25;;;;;19.95;66.82;-19740.41;4971725;27;46786;-74
2022/10/22 05:11:29;;;;;;;;;0.00;0.00;;;;;19.99;66.99;-19741.47;4985378;27;45425;-74
2022/10/22 05:13:56;;;;;;;;;0.50;0.50;;;;;19.97;66.94;-19740.94;4973478;27;45584;-74
2022/10/22 05:16:22;;;;;;;;;1.00;1.00;;;;;19.77;67.51;-19735.75;5001144;27;45678;-74
2022/10/22 05:18:48;;;;;;;;;0.00;0.00;;;;;19.80;67.42;-19736.69;5019224;27;46291;-74
2022/10/22 05:21:16;;;;;;;;;0.00;0.00;;;;;20.00;66.71;-19741.88;4993793;27;45364;-74
2022/10/22 05:23:42;;;;;;;;;0.00;0.00;;;;;19.91;66.91;-19739.47;5028323;27;45491;-74
2022/10/22 05:26:09;;;;;;;;;0.00;0.00;;;;;19.99;66.75;-19741.63;4992499;28;45391;-74
2022/10/22 05:28:35;;;;;;;;;1.00;0.00;;;;;20.07;66.99;-19743.63;4991470;28;45457;-74
2022/10/22 05:31:02;;;;;;;;;0.00;0.00;;;;;20.11;66.98;-19744.69;4997233;27;45325;-74
2022/10/22 05:33:31;;;;;;;;;0.00;0.00;;;;;20.07;66.55;-19743.47;4987607;27;45342;-74
2022/10/22 05:35:57;;;;;;;;;0.00;0.00;;;;;20.19;66.49;-19746.69;4992999;27;45506;-74
2022/10/22 05:38:23;;;;;;;;;1.25;0.00;;;;;20.01;66.69;-19742.16;4991188;27;45446;-74
2022/10/22 05:40:59;;;;;;;;;1.50;1.00;;;;;20.08;67.17;-19743.75;4992297;28;45441;-74
2022/10/22 05:43:24;;;;;;;;;0.33;0.33;;;;;20.14;66.52;-19745.47;4991355;27;46669;-74
2022/10/22 05:45:50;;;;;;;;;0.50;0.50;;;;;20.13;66.62;-19745.22;5003116;28;45984;-74
2022/10/22 05:48:15;;;;;;;;;1.00;0.00;;;;;20.03;67.46;-19742.69;4989294;28;48551;-75
2022/10/22 05:50:40;;;;;;;;;1.33;0.00;;;;;19.91;67.60;-19739.34;4996441;27;47489;-74
2022/10/22 05:53:06;;;;;;;;;0.67;0.00;;;;;19.98;66.73;-19741.22;5001170;28;45383;-73
2022/10/22 05:55:39;;;;;;;;;1.67;0.00;;;;;19.14;68.18;-19719.47;5002012;27;45776;-74
2022/10/22 05:58:05;;;;;;;;;0.00;0.00;;;;;19.37;68.80;-19725.47;4984114;28;47382;-74
2022/10/22 06:00:33;;;;;;;;;1.00;0.00;;;;;19.21;69.17;-19721.06;4982345;27;45550;-73
2022/10/22 06:02:58;;;;;;;;;0.00;0.00;;;;;19.27;69.64;-19722.66;4993771;27;45492;-74
2022/10/22 06:05:23;;;;;;;;;0.67;0.67;;;;;19.41;69.12;-19726.41;4978729;27;46988;-73
2022/10/22 06:07:49;;;;;;;;;0.00;0.00;;;;;19.44;69.44;-19727.06;4996354;28;46682;-75
2022/10/22 06:10:17;;;;;;;;;2.75;0.00;;;;;19.24;69.70;-19722.00;5014643;27;45833;-75
2022/10/22 06:12:42;;;;;;;;;1.33;0.00;;;;;19.21;69.56;-19721.06;5005123;27;45867;-74
2022/10/22 06:15:10;;;;;;;;;0.33;0.00;;;;;18.90;69.91;-19713.19;5001019;27;45567;-72
2022/10/22 06:17:36;;;;;;;;;1.75;0.75;;;;;18.99;69.97;-19715.44;4997547;27;45522;-71
2022/10/22 06:20:01;;;;;;;;;1.33;1.00;;;;;19.17;70.30;-19720.13;4993504;27;45368;-71
2022/10/22 06:22:26;;;;;;;;;0.00;0.00;;;;;19.41;70.07;-19726.41;4995087;27;45403;-72
2022/10/22 06:24:52;;;;;;;;;1.00;1.00;;;;;19.42;69.38;-19726.53;4997494;27;45571;-72
2022/10/22 06:27:17;;;;;;;;;3.33;0.67;;;;;19.25;69.71;-19722.25;4995463;28;46273;-72
2022/10/22 06:29:43;;;;;;;;;1.00;0.00;;;;;19.50;68.95;-19728.81;4992030;27;45508;-78
2022/10/22 06:32:08;;;;;;;;;1.00;1.00;;;;;19.55;69.24;-19730.13;4997700;27;45371;-73
2022/10/22 06:34:33;;;;;;;;;0.00;0.00;;;;;19.45;69.41;-19727.34;5015607;27;45712;-74
2022/10/22 06:36:59;;;;;;;;;1.00;1.00;;;;;19.57;68.70;-19730.53;5013095;27;45490;-73
2022/10/22 06:39:24;;;;;;;;;0.75;0.75;;;;;19.58;68.83;-19730.94;5003960;27;45438;-73
2022/10/22 06:41:49;;;;;;;;;1.00;1.00;;;;;19.55;68.91;-19730.00;5046452;27;45553;-72
2022/10/22 06:44:17;;;;;;;;;2.00;0.00;;;;;19.44;68.99;-19727.19;5021561;27;45334;-72
2022/10/22 06:46:43;;;;;;;;;0.00;0.00;;;;;19.66;69.08;-19732.94;5018413;27;45507;-72
2022/10/22 06:49:12;;;;;;;;;1.00;1.00;;;;;19.65;68.95;-19732.53;5019784;27;45469;-73
2022/10/22 06:51:38;;;;;;;;;2.00;0.33;;;;;19.49;69.21;-19728.41;5046937;27;47182;-72
2022/10/22 06:54:03;;;;;;;;;1.67;0.67;;;;;19.68;69.11;-19733.34;5002665;27;45402;-73
2022/10/22 06:56:28;;;;;;;;;2.00;0.33;;;;;19.24;68.46;-19721.84;5013830;27;46307;-75
2022/10/22 06:58:56;;;;;;;;;2.00;1.00;;;;;19.49;68.89;-19728.41;5005421;27;45665;-73
2022/10/22 07:01:24;;;;;;;;;1.00;1.00;;;;;19.61;68.88;-19731.72;5005168;27;45445;-72
2022/10/22 07:03:50;;;;;;;;;0.00;0.00;;;;;19.60;69.22;-19731.34;4995387;27;45427;-78
2022/10/22 07:06:17;;;;;;;;;1.00;0.00;;;;;19.29;68.98;-19723.31;5024989;27;45329;-79
2022/10/22 07:08:42;;;;;;;;;0.67;0.67;;;;;19.69;69.08;-19733.75;5040823;27;45434;-79
2022/10/22 07:11:18;;;;;;;;;1.00;1.00;;;;;19.69;68.40;-19733.59;5001293;27;45420;-78
2022/10/22 07:13:44;;;;;;;;;2.67;1.00;;;;;19.71;68.46;-19734.13;4985278;27;45591;-79
2022/10/22 07:16:10;;;;;;;;;0.33;0.00;;;;;19.75;68.94;-19735.22;4987975;27;46674;-79
2022/10/22 07:18:37;;;;;;;;;1.00;1.00;;;;;19.65;68.57;-19732.53;4993236;27;45684;-80
2022/10/22 07:21:04;;;;;;;;;1.33;0.67;;;;;19.76;68.89;-19735.47;5002161;27;45455;-79
2022/10/22 07:23:30;;;;;;;;;3.00;0.75;;;;;19.64;68.43;-19732.41;5065527;27;45550;-80
2022/10/22 07:25:55;;;;;;;;;0.00;0.00;;;;;19.86;68.40;-19738.00;4978226;27;47601;-73
2022/10/22 07:28:21;;;;;;;;;0.75;0.75;;;;;19.91;68.35;-19739.34;5024975;27;45495;-73
2022/10/22 07:30:47;;;;;;;;;0.00;0.00;;;;;19.85;68.14;-19737.88;4993289;28;45743;-82
2022/10/22 07:33:12;;;;;;;;;1.00;1.00;;;;;19.99;67.53;-19741.47;5008637;27;45583;-82
2022/10/22 07:35:39;;;;;;;;;0.00;0.00;;;;;19.96;67.63;-19740.69;4996880;27;45895;-81
2022/10/22 07:38:06;;;;;;;;;0.67;0.00;;;;;19.88;67.74;-19738.69;5017112;27;45302;-77
2022/10/22 07:40:32;;;;;;;;;0.00;0.00;;;;;20.01;68.03;-19742.16;5063706;27;45467;-77
2022/10/22 07:42:57;;;;;;;;;0.00;0.00;;;;;19.98;67.67;-19741.34;5041694;27;45443;-78
2022/10/22 07:45:23;;;;;;;;;2.00;0.00;;;;;20.08;66.97;-19743.75;4987804;28;45555;-82
2022/10/22 07:47:48;;;;;;;;;3.00;1.00;;;;;20.07;67.38;-19743.63;5013620;27;45441;-75
2022/10/22 07:50:14;;;;;;;;;1.00;1.00;;;;;20.10;67.25;-19744.28;5025435;27;45384;-73
2022/10/22 07:52:40;;;;;;;;;1.33;1.00;;;;;20.15;67.18;-19745.75;4991930;27;45664;-82
2022/10/22 07:55:05;;;;;;;;;1.33;1.33;;;;;20.18;67.02;-19746.41;5032889;27;45801;-72
2022/10/22 07:57:31;;;;;;;;;1.00;1.00;;;;;20.15;67.27;-19745.63;5043873;27;45373;-74
2022/10/22 07:59:57;;;;;;;;;0.00;0.00;;;;;20.09;67.41;-19744.16;5036643;27;45393;-78
2022/10/22 08:02:23;;;;;;;;;2.00;0.00;;;;;19.94;67.15;-19740.16;5017185;27;45556;-79
2022/10/22 08:04:48;;;;;;;;;1.33;1.33;;;;;20.14;67.15;-19745.34;5039142;27;46324;-79
2022/10/22 08:07:14;;;;;;;;;2.00;2.00;;;;;20.21;66.88;-19747.22;5073783;27;45675;-79
2022/10/22 08:09:39;;;;;;;;;1.00;1.00;;;;;20.14;67.14;-19745.47;5036716;27;45440;-79
2022/10/22 08:12:05;;;;;;;;;1.00;1.00;;;;;20.09;66.77;-19744.16;5029779;27;45510;-73
2022/10/22 08:14:30;;;;;;;;;0.00;0.00;;;;;20.26;66.94;-19748.53;4979562;27;47051;-75
2022/10/22 08:16:55;;;;;;;;;3.75;1.00;;;;;20.25;66.51;-19748.28;5029638;28;45533;-74
2022/10/22 08:19:21;;;;;;;;;3.00;0.67;;;;;20.14;66.96;-19745.34;5047430;28;45381;-75
2022/10/22 08:21:47;;;;;;;;;0.67;0.67;;;;;20.36;66.36;-19751.22;4965767;28;45536;-75
2022/10/22 08:24:13;;;;;;;;;1.00;1.00;;;;;20.45;66.28;-19753.47;4976859;27;46861;-75
2022/10/22 08:26:39;;;;;;;;;1.00;1.00;;;;;20.43;66.11;-19753.06;4974733;28;45393;-76
2022/10/22 08:29:06;;;;;;;;;0.00;0.00;;;;;20.53;66.19;-19755.47;5011585;27;45564;-75
2022/10/22 08:31:31;;;;;;;;;0.75;0.25;;;;;20.60;66.39;-19757.47;4988702;27;45546;-74
2022/10/22 08:33:57;;;;;;;;;0.00;0.00;;;;;20.65;65.92;-19758.69;4993230;27;46154;-75
2022/10/22 08:36:22;;;;;;;;;2.67;1.67;;;;;20.71;65.91;-19760.16;4983393;27;45425;-76
2022/10/22 08:38:47;;;;;;;;;1.75;1.00;;;;;20.75;65.91;-19761.22;5006665;27;45497;-76
2022/10/22 08:41:17;;;;;;;;;0.00;0.00;;;;;20.81;65.67;-19762.94;5005618;27;45508;-76
2022/10/22 08:44:00;;;;;;;;;2.00;1.00;;;;;20.85;65.48;-19764.00;4982761;27;46352;-75
2022/10/22 08:46:26;;;;;;;;;1.00;0.00;;;;;20.91;65.18;-19765.47;4991203;27;45704;-79
2022/10/22 08:48:57;;;;;;;;;0.75;0.75;;;;;20.95;65.22;-19766.53;4986174;27;45460;-74
2022/10/22 08:51:31;;;;;;;;;0.25;0.25;;;;;20.67;65.15;-19759.22;4992127;27;45547;-81
2022/10/22 08:54:04;;;;;;;;;0.67;0.00;;;;;20.72;64.91;-19760.53;4980833;27;46198;-81
2022/10/22 08:56:31;;;;;;;;;1.00;0.25;;;;;20.67;65.66;-19759.22;4995926;27;45437;-84
2022/10/22 08:59:10;;;;;;;;;0.67;0.67;;;;;20.78;65.63;-19762.00;4984298;27;45483;-75
2022/10/22 09:01:43;;;;;;;;;2.00;1.00;;;;;20.77;65.36;-19761.75;4983716;27;45535;-78
2022/10/22 09:04:24;;;;;;;;;3.00;1.50;;;;;20.88;64.90;-19764.69;5007240;27;47000;-69
2022/10/22 09:06:52;;;;;;;;;14.00;11.00;;;;;20.77;65.42;-19761.75;4991489;27;46864;-69
2022/10/22 09:09:19;;;;;;;;;1.33;1.33;;;;;21.03;65.24;-19768.66;4981818;27;45300;-69
2022/10/22 09:11:49;;;;;;;;;1.00;1.00;;;;;21.08;64.41;-19770.00;4988843;27;45327;-69
2022/10/22 09:14:18;;;;;;;;;0.75;0.50;;;;;21.35;65.16;-19776.94;4981376;27;47311;-68
2022/10/22 09:16:55;;;;;;;;;1.00;1.00;;;;;21.53;64.10;-19781.59;4989873;27;45496;-70
2022/10/22 09:19:31;;;;;;;;;5.25;0.25;;;;;21.71;64.16;-19786.38;4989600;27;45748;-70
2022/10/22 09:22:21;;;;;;;;;0.00;0.00;;;;;21.91;63.59;-19791.44;4981913;27;45731;-70
2022/10/22 09:24:52;;;;;;;;;2.00;0.75;;;;;22.23;63.17;-19799.69;4971402;27;47684;-69
2022/10/22 09:27:22;;;;;;;;;0.00;0.00;;;;;22.49;61.73;-19806.47;4995515;27;45447;-68
2022/10/22 09:29:48;;;;;;;;;1.50;0.25;;;;;22.76;61.52;-19813.66;4998714;28;45480;-69
2022/10/22 09:32:15;;;;;;;;;0.00;0.00;;;;;22.97;60.48;-19819.09;4974693;28;45593;-71
2022/10/22 09:34:44;;;;;;;;;0.00;0.00;;;;;23.25;59.70;-19826.13;4991589;27;47604;-72
2022/10/22 09:37:10;;;;;;;;;0.25;0.00;;;;;23.43;58.80;-19830.78;4996247;27;46968;-72
2022/10/22 09:39:49;;;;;;;;;0.00;0.00;;;;;23.44;58.93;-19831.19;4999232;27;45487;-72
2022/10/22 09:42:16;;;;;;;;;0.00;0.00;;;;;23.87;58.48;-19842.34;5013853;27;45503;-72
2022/10/22 09:44:42;;;;;;;;;0.00;0.00;;;;;24.13;57.69;-19849.09;5005815;27;45405;-70
2022/10/22 09:47:37;;;;;;;;;0.00;0.00;;;;;24.27;56.71;-19852.69;4996122;27;45402;-73
2022/10/22 09:50:20;;;;;;;;;0.00;0.00;;;;;25.44;54.70;-19882.91;5065188;27;45476;-73
2022/10/22 09:52:58;;;;;;;;;0.50;0.50;;;;;26.76;52.89;-19916.91;5056990;27;45523;-73
2022/10/22 09:55:24;;;;;;;;;1.75;0.00;;;;;26.92;51.28;-19921.13;4999932;27;46245;-73
2022/10/22 09:57:55;;;;;;;;;2.00;0.50;;;;;26.62;51.99;-19913.47;5008846;27;45918;-73
2022/10/22 10:00:23;;;;;;;;;0.00;0.00;;;;;26.65;51.18;-19914.25;4994194;27;45770;-78
2022/10/22 10:02:54;;;;;;;;;1.25;1.00;;;;;28.96;48.19;-19973.78;5022968;27;45563;-73
2022/10/22 10:05:29;;;;;;;;;2.00;0.50;;;;;30.12;45.80;-20003.50;5032155;27;45384;-73
2022/10/22 10:07:54;;;;;;;;;0.00;0.00;;;;;31.25;43.46;-20032.56;4987352;27;45459;-74
2022/10/22 10:10:38;;;;;;;;;1.25;0.00;;;;;32.24;41.51;-20057.75;5009474;27;45865;-77
2022/10/22 10:13:16;;;;;;;;;1.50;0.00;;;;;33.18;40.16;-20081.97;5010212;27;45374;-75
2022/10/22 10:15:58;;;;;;;;;1.25;0.25;;;;;34.25;37.49;-19076.63;5000109;27;46157;-74
2022/10/22 10:18:26;;;;;;;;;0.00;0.00;;;;;34.61;36.50;-16334.16;5016477;27;45488;-74
2022/10/22 10:21:24;;;;;;;;;0.75;0.00;;;;;35.09;35.78;-14966.28;5000162;27;45400;-75
2022/10/22 10:24:10;;;;;;;;;0.00;0.00;;;;;34.60;35.91;-11859.34;5016505;28;45498;-72
2022/10/22 10:26:47;;;;;;;;;0.00;0.00;;;;;33.38;37.24;-9436.94;5019468;28;47691;-72
2022/10/22 10:29:24;;;;;;;;;1.00;0.00;;;;;31.78;39.19;-9765.72;5029514;28;45517;-72
2022/10/22 10:32:25;;;;;;;;;0.00;0.00;;;;;30.70;40.99;-11125.13;5014476;28;45550;-72
2022/10/22 10:34:56;;;;;;;;;1.00;0.00;;;;;30.08;41.75;-11801.91;5015102;28;45557;-72
2022/10/22 10:37:28;;;;;;;;;0.25;0.25;;;;;29.75;42.86;-13164.53;5014128;28;46073;-72
2022/10/22 10:40:21;;;;;;;;;1.50;0.25;;;;;29.78;43.17;-14531.59;5012247;28;45593;-72
2022/10/22 10:43:01;;;;;;;;;0.00;0.00;;;;;30.06;42.84;-14194.69;5026907;28;45555;-73
2022/10/22 10:45:41;;;;;;;;;0.00;0.00;;;;;30.65;42.18;-14888.44;5011685;28;45692;-72
2022/10/22 10:48:18;;;;;;;;;0.00;0.00;;;;;30.79;41.11;-13522.28;5009332;28;46132;-72
2022/10/22 10:51:26;;;;;;;;;1.00;0.00;;;;;30.11;41.66;-12828.00;5015836;28;45427;-71
2022/10/22 10:54:12;;;;;;;;;1.75;0.00;;;;;31.52;40.61;-14218.84;4953474;28;45543;-72
2022/10/22 10:56:49;;;;;;;;;1.50;0.00;;;;;33.68;37.16;-12191.59;4955697;28;45488;-72
2022/10/22 10:59:22;;;;;;;;;2.00;0.75;;;;;33.41;36.54;-9781.19;4949744;28;45577;-71
2022/10/22 11:02:25;;;;;;;;;0.25;0.25;;;;;32.09;39.16;-9082.16;4922103;28;45430;-72
2022/10/22 11:05:23;;;;;;;;;0.50;0.50;;;;;32.25;38.05;-9083.50;4932335;28;45532;-73
2022/10/22 11:08:02;;;;;;;;;1.00;0.00;;;;;33.57;37.04;-9782.72;4950290;28;45368;-73
2022/10/22 11:10:27;;;;;;;;;2.25;0.25;;;;;34.76;34.24;-7035.53;4949278;28;45843;-74
2022/10/22 11:12:59;;;;;;;;;0.00;0.00;;;;;35.76;33.00;-5312.91;4936090;28;45678;-73
2022/10/22 11:15:32;;;;;;;;;0.00;0.00;;;;;36.83;32.32;-1851.91;4952120;28;45588;-73
2022/10/22 11:18:19;;;;;;;;;0.00;0.00;;;;;36.22;32.33;2995.72;4952617;28;45458;-75
2022/10/22 11:21:15;;;;;;;;;0.00;0.00;;;;;34.80;32.87;8864.50;4953698;28;45884;-74
2022/10/22 11:23:49;;;;;;;;;0.00;0.00;;;;;33.02;35.08;8483.91;4951249;28;45681;-75
2022/10/22 11:26:26;;;;;;;;;0.00;0.00;;;;;31.85;36.61;8116.88;4953041;28;45549;-75
2022/10/22 11:28:52;;;;;;;;;0.25;0.25;;;;;31.67;37.82;4324.69;4935866;28;45703;-79
2022/10/22 11:31:19;;;;;;;;;1.00;1.00;;;;;31.76;37.72;3981.47;4928857;28;48579;-82
2022/10/22 11:33:53;;;;;;;;;1.00;0.00;;;;;30.90;38.58;4658.91;4905332;28;45557;-78
2022/10/22 11:36:22;;;;;;;;;1.00;1.00;;;;;30.24;40.17;2246.28;4906295;28;45671;-75
2022/10/22 11:38:48;;;;;;;;;2.00;0.00;;;;;29.66;40.41;1212.09;4916470;28;46010;-79